sensor_id;sensor_type;location;lat;lon;timestamp;temperature;humidity
57088;DHT22;42965;52.846;6.614;2023-04-15T00:01:30;7.20;99.90
57088;DHT22;42965;52.846;6.614;2023-04-15T00:03:58;7.20;99.90
57088;DHT22;42965;52.846;6.614;2023-04-15T00:06:25;7.10;99.90
57088;DHT22;42965;52.846;6.614;2023-04-15T00:08:51;7.10;99.90
57088;DHT22;42965;52.846;6.614;2023-04-15T00:11:17;7.10;99.90
57088;DHT22;42965;52.846;6.614;2023-04-15T00:13:45;7.10;99.90
57088;DHT22;42965;52.846;6.614;2023-04-15T00:16:11;7.00;99.90
57088;DHT22;42965;52.846;6.614;2023-04-15T00:18:37;7.00;99.90
57088;DHT22;42965;52.846;6.614;2023-04-15T00:21:04;7.00;99.90
57088;DHT22;42965;52.846;6.614;2023-04-15T00:23:30;7.00;99.90
57088;DHT22;42965;52.846;6.614;2023-04-15T00:25:57;6.90;99.90
57088;DHT22;42965;52.846;6.614;2023-04-15T00:28:23;6.90;99.90
57088;DHT22;42965;52.846;6.614;2023-04-15T00:30:49;6.90;99.90
57088;DHT22;42965;52.846;6.614;2023-04-15T00:33:15;6.90;99.90
57088;DHT22;42965;52.846;6.614;2023-04-15T00:35:42;6.80;99.90
57088;DHT22;42965;52.846;6.614;2023-04-15T00:38:08;6.80;99.90
57088;DHT22;42965;52.846;6.614;2023-04-15T00:40:35;6.80;99.90
57088;DHT22;42965;52.846;6.614;2023-04-15T00:43:01;6.80;99.90
57088;DHT22;42965;52.846;6.614;2023-04-15T00:45:29;6.80;99.90
57088;DHT22;42965;52.846;6.614;2023-04-15T00:47:55;6.80;99.90
57088;DHT22;42965;52.846;6.614;2023-04-15T00:50:22;6.70;99.90
57088;DHT22;42965;52.846;6.614;2023-04-15T00:52:48;6.70;99.90
57088;DHT22;42965;52.846;6.614;2023-04-15T00:55:14;6.70;99.90
57088;DHT22;42965;52.846;6.614;2023-04-15T00:57:41;6.70;99.90
57088;DHT22;42965;52.846;6.614;2023-04-15T01:00:08;6.70;99.90
57088;DHT22;42965;52.846;6.614;2023-04-15T01:02:36;6.60;99.90
57088;DHT22;42965;52.846;6.614;2023-04-15T01:05:03;6.60;99.90
57088;DHT22;42965;52.846;6.614;2023-04-15T01:07:30;6.60;99.90
57088;DHT22;42965;52.846;6.614;2023-04-15T01:09:56;6.60;99.90
57088;DHT22;42965;52.846;6.614;2023-04-15T01:12:25;6.50;99.90
57088;DHT22;42965;52.846;6.614;2023-04-15T01:14:53;6.50;99.90
57088;DHT22;42965;52.846;6.614;2023-04-15T01:17:20;6.50;99.90
57088;DHT22;42965;52.846;6.614;2023-04-15T01:19:47;6.40;99.90
57088;DHT22;42965;52.846;6.614;2023-04-15T01:22:14;6.40;99.90
57088;DHT22;42965;52.846;6.614;2023-04-15T01:24:56;6.40;99.90
57088;DHT22;42965;52.846;6.614;2023-04-15T01:27:27;6.30;99.90
57088;DHT22;42965;52.846;6.614;2023-04-15T01:29:53;6.20;99.90
57088;DHT22;42965;52.846;6.614;2023-04-15T01:32:19;6.20;99.90
57088;DHT22;42965;52.846;6.614;2023-04-15T01:35:04;6.20;99.90
57088;DHT22;42965;52.846;6.614;2023-04-15T01:37:47;6.10;99.90
57088;DHT22;42965;52.846;6.614;2023-04-15T01:40:19;6.10;99.90
57088;DHT22;42965;52.846;6.614;2023-04-15T01:42:45;6.00;99.90
57088;DHT22;42965;52.846;6.614;2023-04-15T01:45:14;6.00;99.90
57088;DHT22;42965;52.846;6.614;2023-04-15T01:47:42;6.00;99.90
57088;DHT22;42965;52.846;6.614;2023-04-15T01:50:09;6.00;99.90
57088;DHT22;42965;52.846;6.614;2023-04-15T01:52:35;5.90;99.90
57088;DHT22;42965;52.846;6.614;2023-04-15T01:55:03;5.90;99.90
57088;DHT22;42965;52.846;6.614;2023-04-15T01:57:29;5.90;99.90
57088;DHT22;42965;52.846;6.614;2023-04-15T01:59:55;5.80;99.90
57088;DHT22;42965;52.846;6.614;2023-04-15T02:02:21;5.80;99.90
57088;DHT22;42965;52.846;6.614;2023-04-15T02:04:48;5.80;99.90
57088;DHT22;42965;52.846;6.614;2023-04-15T02:07:15;5.80;99.90
57088;DHT22;42965;52.846;6.614;2023-04-15T02:09:42;5.80;99.90
57088;DHT22;42965;52.846;6.614;2023-04-15T02:12:09;5.80;99.90
57088;DHT22;42965;52.846;6.614;2023-04-15T02:14:35;5.80;99.90
57088;DHT22;42965;52.846;6.614;2023-04-15T02:17:02;5.70;99.90
57088;DHT22;42965;52.846;6.614;2023-04-15T02:19:35;5.70;99.90
57088;DHT22;42965;52.846;6.614;2023-04-15T02:22:02;5.70;99.90
57088;DHT22;42965;52.846;6.614;2023-04-15T02:24:29;5.70;99.90
57088;DHT22;42965;52.846;6.614;2023-04-15T02:26:56;5.70;99.90
57088;DHT22;42965;52.846;6.614;2023-04-15T02:29:22;5.70;99.90
57088;DHT22;42965;52.846;6.614;2023-04-15T02:31:51;5.60;99.90
57088;DHT22;42965;52.846;6.614;2023-04-15T02:34:17;5.70;99.90
57088;DHT22;42965;52.846;6.614;2023-04-15T02:36:47;5.60;99.90
57088;DHT22;42965;52.846;6.614;2023-04-15T02:39:15;5.70;99.90
57088;DHT22;42965;52.846;6.614;2023-04-15T02:41:45;5.60;99.90
57088;DHT22;42965;52.846;6.614;2023-04-15T02:44:17;5.60;99.90
57088;DHT22;42965;52.846;6.614;2023-04-15T02:46:49;5.60;99.90
57088;DHT22;42965;52.846;6.614;2023-04-15T02:49:18;5.60;99.90
57088;DHT22;42965;52.846;6.614;2023-04-15T02:51:44;5.60;99.90
57088;DHT22;42965;52.846;6.614;2023-04-15T02:54:19;5.50;99.90
57088;DHT22;42965;52.846;6.614;2023-04-15T02:56:45;5.50;99.90
57088;DHT22;42965;52.846;6.614;2023-04-15T02:59:12;5.50;99.90
57088;DHT22;42965;52.846;6.614;2023-04-15T03:01:39;5.40;99.90
57088;DHT22;42965;52.846;6.614;2023-04-15T03:04:05;5.40;99.90
57088;DHT22;42965;52.846;6.614;2023-04-15T03:06:34;5.40;99.90
57088;DHT22;42965;52.846;6.614;2023-04-15T03:09:00;5.40;99.90
57088;DHT22;42965;52.846;6.614;2023-04-15T03:11:31;5.40;99.90
57088;DHT22;42965;52.846;6.614;2023-04-15T03:13:58;5.40;99.90
57088;DHT22;42965;52.846;6.614;2023-04-15T03:16:30;5.40;99.90
57088;DHT22;42965;52.846;6.614;2023-04-15T03:18:57;5.40;99.90
57088;DHT22;42965;52.846;6.614;2023-04-15T03:21:24;5.30;99.90
57088;DHT22;42965;52.846;6.614;2023-04-15T03:23:52;5.30;99.90
57088;DHT22;42965;52.846;6.614;2023-04-15T03:26:29;5.30;99.90
57088;DHT22;42965;52.846;6.614;2023-04-15T03:28:59;5.20;99.90
57088;DHT22;42965;52.846;6.614;2023-04-15T03:31:26;5.20;99.90
57088;DHT22;42965;52.846;6.614;2023-04-15T03:33:52;5.20;99.90
57088;DHT22;42965;52.846;6.614;2023-04-15T03:36:18;5.20;99.90
57088;DHT22;42965;52.846;6.614;2023-04-15T03:38:45;5.20;99.90
57088;DHT22;42965;52.846;6.614;2023-04-15T03:41:11;5.10;99.90
57088;DHT22;42965;52.846;6.614;2023-04-15T03:43:37;5.20;99.90
57088;DHT22;42965;52.846;6.614;2023-04-15T03:46:04;5.10;99.90
57088;DHT22;42965;52.846;6.614;2023-04-15T03:48:30;5.10;99.90
57088;DHT22;42965;52.846;6.614;2023-04-15T03:50:57;5.00;99.90
57088;DHT22;42965;52.846;6.614;2023-04-15T03:53:23;5.00;99.90
57088;DHT22;42965;52.846;6.614;2023-04-15T03:55:50;4.90;99.90
57088;DHT22;42965;52.846;6.614;2023-04-15T03:58:16;4.90;99.90
57088;DHT22;42965;52.846;6.614;2023-04-15T04:00:43;4.90;99.90
57088;DHT22;42965;52.846;6.614;2023-04-15T04:03:10;4.90;99.90
57088;DHT22;42965;52.846;6.614;2023-04-15T04:05:36;4.80;99.90
57088;DHT22;42965;52.846;6.614;2023-04-15T04:08:04;4.80;99.90
57088;DHT22;42965;52.846;6.614;2023-04-15T04:10:30;4.80;99.90
57088;DHT22;42965;52.846;6.614;2023-04-15T04:12:56;4.90;99.90
57088;DHT22;42965;52.846;6.614;2023-04-15T04:15:26;4.90;99.90
57088;DHT22;42965;52.846;6.614;2023-04-15T04:17:52;4.80;99.90
57088;DHT22;42965;52.846;6.614;2023-04-15T04:20:18;4.80;99.90
57088;DHT22;42965;52.846;6.614;2023-04-15T04:22:44;4.80;99.90
57088;DHT22;42965;52.846;6.614;2023-04-15T04:25:11;4.80;99.90
57088;DHT22;42965;52.846;6.614;2023-04-15T04:27:37;4.80;99.90
57088;DHT22;42965;52.846;6.614;2023-04-15T04:30:04;4.70;99.90
57088;DHT22;42965;52.846;6.614;2023-04-15T04:32:31;4.70;99.90
57088;DHT22;42965;52.846;6.614;2023-04-15T04:34:58;4.70;99.90
57088;DHT22;42965;52.846;6.614;2023-04-15T04:37:24;4.60;99.90
57088;DHT22;42965;52.846;6.614;2023-04-15T04:39:50;4.60;99.90
57088;DHT22;42965;52.846;6.614;2023-04-15T04:42:16;4.60;99.90
57088;DHT22;42965;52.846;6.614;2023-04-15T04:44:43;4.60;99.90
57088;DHT22;42965;52.846;6.614;2023-04-15T04:47:09;4.50;99.90
57088;DHT22;42965;52.846;6.614;2023-04-15T04:49:35;4.50;99.90
57088;DHT22;42965;52.846;6.614;2023-04-15T04:52:02;4.50;99.90
57088;DHT22;42965;52.846;6.614;2023-04-15T04:54:28;4.40;99.90
57088;DHT22;42965;52.846;6.614;2023-04-15T04:56:56;4.40;99.90
57088;DHT22;42965;52.846;6.614;2023-04-15T04:59:23;4.40;99.90
57088;DHT22;42965;52.846;6.614;2023-04-15T05:01:50;4.40;99.90
57088;DHT22;42965;52.846;6.614;2023-04-15T05:04:17;4.40;99.90
57088;DHT22;42965;52.846;6.614;2023-04-15T05:06:43;4.50;99.90
57088;DHT22;42965;52.846;6.614;2023-04-15T05:09:09;4.50;99.90
57088;DHT22;42965;52.846;6.614;2023-04-15T05:11:35;4.50;99.90
57088;DHT22;42965;52.846;6.614;2023-04-15T05:14:02;4.50;99.90
57088;DHT22;42965;52.846;6.614;2023-04-15T05:16:28;4.50;99.90
57088;DHT22;42965;52.846;6.614;2023-04-15T05:18:54;4.50;99.90
57088;DHT22;42965;52.846;6.614;2023-04-15T05:21:21;4.50;99.90
57088;DHT22;42965;52.846;6.614;2023-04-15T05:23:47;4.60;99.90
57088;DHT22;42965;52.846;6.614;2023-04-15T05:26:14;4.60;99.90
57088;DHT22;42965;52.846;6.614;2023-04-15T05:28:41;4.70;99.90
57088;DHT22;42965;52.846;6.614;2023-04-15T05:31:07;4.70;99.90
57088;DHT22;42965;52.846;6.614;2023-04-15T05:33:33;4.80;99.90
57088;DHT22;42965;52.846;6.614;2023-04-15T05:36:00;4.80;99.90
57088;DHT22;42965;52.846;6.614;2023-04-15T05:38:26;4.90;99.90
57088;DHT22;42965;52.846;6.614;2023-04-15T05:40:52;5.00;99.90
57088;DHT22;42965;52.846;6.614;2023-04-15T05:43:18;5.10;99.90
57088;DHT22;42965;52.846;6.614;2023-04-15T05:45:45;5.20;99.90
57088;DHT22;42965;52.846;6.614;2023-04-15T05:48:12;5.20;99.90
57088;DHT22;42965;52.846;6.614;2023-04-15T05:50:42;5.30;99.90
57088;DHT22;42965;52.846;6.614;2023-04-15T05:53:09;5.40;99.90
57088;DHT22;42965;52.846;6.614;2023-04-15T05:55:35;5.50;99.90
57088;DHT22;42965;52.846;6.614;2023-04-15T05:58:02;5.50;99.90
57088;DHT22;42965;52.846;6.614;2023-04-15T06:00:28;5.60;99.90
57088;DHT22;42965;52.846;6.614;2023-04-15T06:02:55;5.60;99.90
57088;DHT22;42965;52.846;6.614;2023-04-15T06:05:23;5.70;99.90
57088;DHT22;42965;52.846;6.614;2023-04-15T06:07:49;5.80;99.90
57088;DHT22;42965;52.846;6.614;2023-04-15T06:10:17;5.90;99.90
57088;DHT22;42965;52.846;6.614;2023-04-15T06:12:43;6.00;99.90
57088;DHT22;42965;52.846;6.614;2023-04-15T06:15:09;6.10;99.90
57088;DHT22;42965;52.846;6.614;2023-04-15T06:17:36;6.10;99.90
57088;DHT22;42965;52.846;6.614;2023-04-15T06:20:03;6.20;99.90
57088;DHT22;42965;52.846;6.614;2023-04-15T06:22:29;6.40;99.90
57088;DHT22;42965;52.846;6.614;2023-04-15T06:24:56;6.50;99.90
57088;DHT22;42965;52.846;6.614;2023-04-15T06:27:22;6.70;99.90
57088;DHT22;42965;52.846;6.614;2023-04-15T06:29:48;6.80;99.90
57088;DHT22;42965;52.846;6.614;2023-04-15T06:32:14;6.90;99.90
57088;DHT22;42965;52.846;6.614;2023-04-15T06:34:41;7.00;99.90
57088;DHT22;42965;52.846;6.614;2023-04-15T06:37:07;7.10;99.90
57088;DHT22;42965;52.846;6.614;2023-04-15T06:39:35;7.10;99.90
57088;DHT22;42965;52.846;6.614;2023-04-15T06:42:02;7.20;99.90
57088;DHT22;42965;52.846;6.614;2023-04-15T06:44:29;7.30;99.90
57088;DHT22;42965;52.846;6.614;2023-04-15T06:46:55;7.40;99.90
57088;DHT22;42965;52.846;6.614;2023-04-15T06:49:22;7.50;99.90
57088;DHT22;42965;52.846;6.614;2023-04-15T06:51:48;7.50;99.90
57088;DHT22;42965;52.846;6.614;2023-04-15T06:54:15;7.60;99.90
57088;DHT22;42965;52.846;6.614;2023-04-15T06:56:41;7.60;99.90
57088;DHT22;42965;52.846;6.614;2023-04-15T06:59:08;7.60;99.90
57088;DHT22;42965;52.846;6.614;2023-04-15T07:01:34;7.70;99.90
57088;DHT22;42965;52.846;6.614;2023-04-15T07:04:00;7.80;99.90
57088;DHT22;42965;52.846;6.614;2023-04-15T07:06:27;7.90;99.90
57088;DHT22;42965;52.846;6.614;2023-04-15T07:08:53;8.00;99.90
57088;DHT22;42965;52.846;6.614;2023-04-15T07:11:20;8.10;99.90
57088;DHT22;42965;52.846;6.614;2023-04-15T07:13:47;8.20;99.90
57088;DHT22;42965;52.846;6.614;2023-04-15T07:16:13;8.30;99.90
57088;DHT22;42965;52.846;6.614;2023-04-15T07:18:39;8.30;99.90
57088;DHT22;42965;52.846;6.614;2023-04-15T07:21:05;8.60;99.90
57088;DHT22;42965;52.846;6.614;2023-04-15T07:23:31;8.70;99.90
57088;DHT22;42965;52.846;6.614;2023-04-15T07:25:58;8.70;99.90
57088;DHT22;42965;52.846;6.614;2023-04-15T07:28:28;8.80;99.90
57088;DHT22;42965;52.846;6.614;2023-04-15T07:30:57;8.80;99.90
57088;DHT22;42965;52.846;6.614;2023-04-15T07:33:23;8.80;99.90
57088;DHT22;42965;52.846;6.614;2023-04-15T07:35:49;8.90;99.90
57088;DHT22;42965;52.846;6.614;2023-04-15T07:38:16;9.00;99.90
57088;DHT22;42965;52.846;6.614;2023-04-15T07:40:43;9.10;99.90
57088;DHT22;42965;52.846;6.614;2023-04-15T07:43:09;9.10;99.90
57088;DHT22;42965;52.846;6.614;2023-04-15T07:45:35;9.30;99.90
57088;DHT22;42965;52.846;6.614;2023-04-15T07:48:02;9.30;99.90
57088;DHT22;42965;52.846;6.614;2023-04-15T07:50:28;9.40;99.90
57088;DHT22;42965;52.846;6.614;2023-04-15T07:52:54;9.50;99.90
57088;DHT22;42965;52.846;6.614;2023-04-15T07:55:21;9.60;99.90
57088;DHT22;42965;52.846;6.614;2023-04-15T07:57:48;9.60;99.90
57088;DHT22;42965;52.846;6.614;2023-04-15T08:00:15;9.70;99.90
57088;DHT22;42965;52.846;6.614;2023-04-15T08:02:42;9.90;99.90
57088;DHT22;42965;52.846;6.614;2023-04-15T08:05:09;9.90;99.90
57088;DHT22;42965;52.846;6.614;2023-04-15T08:07:38;9.90;99.90
57088;DHT22;42965;52.846;6.614;2023-04-15T08:10:05;9.90;99.90
57088;DHT22;42965;52.846;6.614;2023-04-15T08:12:31;10.10;99.90
57088;DHT22;42965;52.846;6.614;2023-04-15T08:14:58;10.00;99.90
57088;DHT22;42965;52.846;6.614;2023-04-15T08:17:24;10.10;99.90
57088;DHT22;42965;52.846;6.614;2023-04-15T08:19:50;10.20;99.90
57088;DHT22;42965;52.846;6.614;2023-04-15T08:22:17;10.30;99.90
57088;DHT22;42965;52.846;6.614;2023-04-15T08:24:43;10.30;99.90
57088;DHT22;42965;52.846;6.614;2023-04-15T08:27:10;10.20;99.90
57088;DHT22;42965;52.846;6.614;2023-04-15T08:29:36;10.20;99.90
57088;DHT22;42965;52.846;6.614;2023-04-15T08:32:02;10.20;99.90
57088;DHT22;42965;52.846;6.614;2023-04-15T08:34:29;10.20;99.90
57088;DHT22;42965;52.846;6.614;2023-04-15T08:36:55;10.30;99.90
57088;DHT22;42965;52.846;6.614;2023-04-15T08:39:22;10.40;99.90
57088;DHT22;42965;52.846;6.614;2023-04-15T08:41:59;10.40;99.90
57088;DHT22;42965;52.846;6.614;2023-04-15T08:44:35;10.20;99.90
57088;DHT22;42965;52.846;6.614;2023-04-15T08:47:05;10.10;99.90
57088;DHT22;42965;52.846;6.614;2023-04-15T08:49:36;10.10;99.90
57088;DHT22;42965;52.846;6.614;2023-04-15T08:52:05;10.10;99.90
57088;DHT22;42965;52.846;6.614;2023-04-15T08:54:33;10.20;99.90
57088;DHT22;42965;52.846;6.614;2023-04-15T08:57:00;10.10;99.90
57088;DHT22;42965;52.846;6.614;2023-04-15T08:59:29;10.00;99.90
57088;DHT22;42965;52.846;6.614;2023-04-15T09:01:56;10.00;99.90
57088;DHT22;42965;52.846;6.614;2023-04-15T09:04:23;9.80;99.90
57088;DHT22;42965;52.846;6.614;2023-04-15T09:06:49;9.90;99.90
57088;DHT22;42965;52.846;6.614;2023-04-15T09:09:17;9.80;99.90
57088;DHT22;42965;52.846;6.614;2023-04-15T09:11:43;9.90;99.90
57088;DHT22;42965;52.846;6.614;2023-04-15T09:14:09;9.90;99.90
57088;DHT22;42965;52.846;6.614;2023-04-15T09:17:02;9.80;99.90
57088;DHT22;42965;52.846;6.614;2023-04-15T09:19:30;9.90;99.90
57088;DHT22;42965;52.846;6.614;2023-04-15T09:21:58;9.90;99.90
57088;DHT22;42965;52.846;6.614;2023-04-15T09:24:25;9.90;99.90
57088;DHT22;42965;52.846;6.614;2023-04-15T09:26:59;10.00;99.90
57088;DHT22;42965;52.846;6.614;2023-04-15T09:29:25;10.00;99.90
57088;DHT22;42965;52.846;6.614;2023-04-15T09:31:51;9.90;99.90
57088;DHT22;42965;52.846;6.614;2023-04-15T09:34:18;9.80;99.90
57088;DHT22;42965;52.846;6.614;2023-04-15T09:39:11;9.80;99.90
57088;DHT22;42965;52.846;6.614;2023-04-15T09:41:38;9.70;99.90
57088;DHT22;42965;52.846;6.614;2023-04-15T09:44:05;9.70;99.90
57088;DHT22;42965;52.846;6.614;2023-04-15T09:46:44;9.60;99.90
57088;DHT22;42965;52.846;6.614;2023-04-15T09:49:11;9.80;99.90
57088;DHT22;42965;52.846;6.614;2023-04-15T09:51:38;9.90;99.90
57088;DHT22;42965;52.846;6.614;2023-04-15T09:54:04;10.20;99.90
57088;DHT22;42965;52.846;6.614;2023-04-15T09:56:35;10.30;99.90
57088;DHT22;42965;52.846;6.614;2023-04-15T09:59:08;10.40;99.90
57088;DHT22;42965;52.846;6.614;2023-04-15T10:01:35;10.40;99.90
57088;DHT22;42965;52.846;6.614;2023-04-15T10:04:03;10.30;99.90
57088;DHT22;42965;52.846;6.614;2023-04-15T10:06:29;10.30;99.90
57088;DHT22;42965;52.846;6.614;2023-04-15T10:09:02;10.30;99.90
57088;DHT22;42965;52.846;6.614;2023-04-15T10:11:29;10.30;99.90
57088;DHT22;42965;52.846;6.614;2023-04-15T10:13:56;10.20;99.90
57088;DHT22;42965;52.846;6.614;2023-04-15T10:16:26;10.20;99.90
57088;DHT22;42965;52.846;6.614;2023-04-15T10:18:55;10.20;99.90
57088;DHT22;42965;52.846;6.614;2023-04-15T10:21:21;10.30;99.90
57088;DHT22;42965;52.846;6.614;2023-04-15T10:23:49;10.30;99.90
57088;DHT22;42965;52.846;6.614;2023-04-15T10:26:19;10.30;99.90
57088;DHT22;42965;52.846;6.614;2023-04-15T10:28:46;10.20;99.90
57088;DHT22;42965;52.846;6.614;2023-04-15T10:31:14;10.30;99.90
57088;DHT22;42965;52.846;6.614;2023-04-15T10:33:42;10.30;99.90
57088;DHT22;42965;52.846;6.614;2023-04-15T10:36:08;10.30;99.90
57088;DHT22;42965;52.846;6.614;2023-04-15T10:41:38;10.50;99.90
57088;DHT22;42965;52.846;6.614;2023-04-15T10:44:05;10.70;99.90
57088;DHT22;42965;52.846;6.614;2023-04-15T10:46:40;10.70;99.90
57088;DHT22;42965;52.846;6.614;2023-04-15T10:49:23;10.70;99.90
57088;DHT22;42965;52.846;6.614;2023-04-15T10:51:52;10.70;99.90
57088;DHT22;42965;52.846;6.614;2023-04-15T10:59:31;10.60;99.90
57088;DHT22;42965;52.846;6.614;2023-04-15T11:02:03;10.40;99.90
57088;DHT22;42965;52.846;6.614;2023-04-15T11:12:59;10.20;99.90
57088;DHT22;42965;52.846;6.614;2023-04-15T11:20:35;10.40;99.90
57088;DHT22;42965;52.846;6.614;2023-04-15T11:23:01;10.40;99.90
57088;DHT22;42965;52.846;6.614;2023-04-15T11:25:30;10.50;99.90
57088;DHT22;42965;52.846;6.614;2023-04-15T11:27:59;10.50;99.90
57088;DHT22;42965;52.846;6.614;2023-04-15T11:30:31;10.50;99.90
57088;DHT22;42965;52.846;6.614;2023-04-15T11:32:59;10.60;99.90
57088;DHT22;42965;52.846;6.614;2023-04-15T11:35:26;10.50;99.90
57088;DHT22;42965;52.846;6.614;2023-04-15T11:37:52;10.40;99.90
57088;DHT22;42965;52.846;6.614;2023-04-15T11:40:23;10.40;99.90
57088;DHT22;42965;52.846;6.614;2023-04-15T11:43:07;10.30;99.90
57088;DHT22;42965;52.846;6.614;2023-04-15T11:45:34;10.30;99.90
57088;DHT22;42965;52.846;6.614;2023-04-15T11:48:10;10.30;99.90
57088;DHT22;42965;52.846;6.614;2023-04-15T11:50:38;10.40;99.90
57088;DHT22;42965;52.846;6.614;2023-04-15T11:53:10;10.50;99.90
57088;DHT22;42965;52.846;6.614;2023-04-15T11:55:47;10.50;99.90
57088;DHT22;42965;52.846;6.614;2023-04-15T11:58:19;10.50;99.90
57088;DHT22;42965;52.846;6.614;2023-04-15T12:00:55;10.50;99.90
57088;DHT22;42965;52.846;6.614;2023-04-15T12:06:06;10.60;99.90
57088;DHT22;42965;52.846;6.614;2023-04-15T12:08:55;10.40;99.90
57088;DHT22;42965;52.846;6.614;2023-04-15T12:16:48;10.60;99.90
57088;DHT22;42965;52.846;6.614;2023-04-15T12:21:49;10.70;99.90
57088;DHT22;42965;52.846;6.614;2023-04-15T12:24:20;10.60;99.90
57088;DHT22;42965;52.846;6.614;2023-04-15T12:26:52;10.60;99.90
57088;DHT22;42965;52.846;6.614;2023-04-15T12:29:27;10.60;99.90
57088;DHT22;42965;52.846;6.614;2023-04-15T12:31:58;10.60;99.90
57088;DHT22;42965;52.846;6.614;2023-04-15T12:34:31;10.70;99.90
57088;DHT22;42965;52.846;6.614;2023-04-15T12:36:59;10.70;99.90
57088;DHT22;42965;52.846;6.614;2023-04-15T12:39:28;10.70;99.90
57088;DHT22;42965;52.846;6.614;2023-04-15T12:41:54;10.70;99.90
57088;DHT22;42965;52.846;6.614;2023-04-15T12:44:30;10.60;99.90
57088;DHT22;42965;52.846;6.614;2023-04-15T12:46:56;10.60;99.90
57088;DHT22;42965;52.846;6.614;2023-04-15T12:49:23;10.50;99.90
57088;DHT22;42965;52.846;6.614;2023-04-15T12:51:55;10.50;99.90
57088;DHT22;42965;52.846;6.614;2023-04-15T12:54:22;10.50;99.90
57088;DHT22;42965;52.846;6.614;2023-04-15T12:56:49;10.50;99.90
57088;DHT22;42965;52.846;6.614;2023-04-15T12:59:16;10.50;99.90
57088;DHT22;42965;52.846;6.614;2023-04-15T13:01:45;10.40;99.90
57088;DHT22;42965;52.846;6.614;2023-04-15T13:04:11;10.40;99.90
57088;DHT22;42965;52.846;6.614;2023-04-15T13:06:37;10.20;99.90
57088;DHT22;42965;52.846;6.614;2023-04-15T13:09:04;10.20;99.90
57088;DHT22;42965;52.846;6.614;2023-04-15T13:11:30;10.20;99.90
57088;DHT22;42965;52.846;6.614;2023-04-15T13:14:00;10.10;99.90
57088;DHT22;42965;52.846;6.614;2023-04-15T13:16:27;10.10;99.90
57088;DHT22;42965;52.846;6.614;2023-04-15T13:18:53;10.10;99.90
57088;DHT22;42965;52.846;6.614;2023-04-15T13:21:19;10.20;99.90
57088;DHT22;42965;52.846;6.614;2023-04-15T13:23:48;10.30;99.90
57088;DHT22;42965;52.846;6.614;2023-04-15T13:26:18;10.30;99.90
57088;DHT22;42965;52.846;6.614;2023-04-15T13:28:44;10.30;99.90
57088;DHT22;42965;52.846;6.614;2023-04-15T13:31:11;10.30;99.90
57088;DHT22;42965;52.846;6.614;2023-04-15T13:33:38;10.20;99.90
57088;DHT22;42965;52.846;6.614;2023-04-15T13:36:04;10.20;99.90
57088;DHT22;42965;52.846;6.614;2023-04-15T13:38:30;10.10;99.90
57088;DHT22;42965;52.846;6.614;2023-04-15T13:40:57;10.00;99.90
57088;DHT22;42965;52.846;6.614;2023-04-15T13:43:23;10.00;99.90
57088;DHT22;42965;52.846;6.614;2023-04-15T13:45:49;10.00;99.90
57088;DHT22;42965;52.846;6.614;2023-04-15T13:48:19;10.00;99.90
57088;DHT22;42965;52.846;6.614;2023-04-15T13:50:48;10.00;99.90
57088;DHT22;42965;52.846;6.614;2023-04-15T13:53:14;10.00;99.90
57088;DHT22;42965;52.846;6.614;2023-04-15T13:55:41;10.00;99.90
57088;DHT22;42965;52.846;6.614;2023-04-15T13:58:08;10.00;99.90
57088;DHT22;42965;52.846;6.614;2023-04-15T14:00:34;9.90;99.90
57088;DHT22;42965;52.846;6.614;2023-04-15T14:03:01;9.90;99.90
57088;DHT22;42965;52.846;6.614;2023-04-15T14:05:28;9.90;99.90
57088;DHT22;42965;52.846;6.614;2023-04-15T14:07:54;9.80;99.90
57088;DHT22;42965;52.846;6.614;2023-04-15T14:10:20;9.80;99.90
57088;DHT22;42965;52.846;6.614;2023-04-15T14:12:49;9.80;99.90
57088;DHT22;42965;52.846;6.614;2023-04-15T14:15:16;9.70;99.90
57088;DHT22;42965;52.846;6.614;2023-04-15T14:17:47;9.70;99.90
57088;DHT22;42965;52.846;6.614;2023-04-15T14:20:13;9.80;99.90
57088;DHT22;42965;52.846;6.614;2023-04-15T14:22:40;9.80;99.90
57088;DHT22;42965;52.846;6.614;2023-04-15T14:25:07;9.80;99.90
57088;DHT22;42965;52.846;6.614;2023-04-15T14:27:34;9.80;99.90
57088;DHT22;42965;52.846;6.614;2023-04-15T14:30:00;9.70;99.90
57088;DHT22;42965;52.846;6.614;2023-04-15T14:32:26;9.70;99.90
57088;DHT22;42965;52.846;6.614;2023-04-15T14:34:52;9.80;99.90
57088;DHT22;42965;52.846;6.614;2023-04-15T14:37:19;9.70;99.90
57088;DHT22;42965;52.846;6.614;2023-04-15T14:39:45;9.60;99.90
57088;DHT22;42965;52.846;6.614;2023-04-15T14:42:12;9.60;99.90
57088;DHT22;42965;52.846;6.614;2023-04-15T14:44:39;9.50;99.90
57088;DHT22;42965;52.846;6.614;2023-04-15T14:47:05;9.60;99.90
57088;DHT22;42965;52.846;6.614;2023-04-15T14:49:31;9.60;99.90
57088;DHT22;42965;52.846;6.614;2023-04-15T14:51:57;9.60;99.90
57088;DHT22;42965;52.846;6.614;2023-04-15T14:54:23;9.70;99.90
57088;DHT22;42965;52.846;6.614;2023-04-15T14:56:49;9.70;99.90
57088;DHT22;42965;52.846;6.614;2023-04-15T14:59:19;9.60;99.90
57088;DHT22;42965;52.846;6.614;2023-04-15T15:01:45;9.70;99.90
57088;DHT22;42965;52.846;6.614;2023-04-15T15:04:12;9.60;99.90
57088;DHT22;42965;52.846;6.614;2023-04-15T15:06:39;9.50;99.90
57088;DHT22;42965;52.846;6.614;2023-04-15T15:09:05;9.50;99.90
57088;DHT22;42965;52.846;6.614;2023-04-15T15:11:31;9.50;99.90
57088;DHT22;42965;52.846;6.614;2023-04-15T15:13:57;9.40;99.90
57088;DHT22;42965;52.846;6.614;2023-04-15T15:16:24;9.40;99.90
57088;DHT22;42965;52.846;6.614;2023-04-15T15:18:50;9.40;99.90
57088;DHT22;42965;52.846;6.614;2023-04-15T15:21:17;9.40;99.90
57088;DHT22;42965;52.846;6.614;2023-04-15T15:23:44;9.40;99.90
57088;DHT22;42965;52.846;6.614;2023-04-15T15:26:11;9.40;99.90
57088;DHT22;42965;52.846;6.614;2023-04-15T15:28:37;9.30;99.90
57088;DHT22;42965;52.846;6.614;2023-04-15T15:31:03;9.20;99.90
57088;DHT22;42965;52.846;6.614;2023-04-15T15:33:30;9.20;99.90
57088;DHT22;42965;52.846;6.614;2023-04-15T15:35:57;9.20;99.90
57088;DHT22;42965;52.846;6.614;2023-04-15T15:38:23;9.10;99.90
57088;DHT22;42965;52.846;6.614;2023-04-15T15:40:49;9.20;99.90
57088;DHT22;42965;52.846;6.614;2023-04-15T15:43:17;9.10;99.90
57088;DHT22;42965;52.846;6.614;2023-04-15T15:45:43;9.10;99.90
57088;DHT22;42965;52.846;6.614;2023-04-15T15:48:10;9.10;99.90
57088;DHT22;42965;52.846;6.614;2023-04-15T15:50:36;9.00;99.90
57088;DHT22;42965;52.846;6.614;2023-04-15T15:53:02;9.00;99.90
57088;DHT22;42965;52.846;6.614;2023-04-15T15:55:29;9.00;99.90
57088;DHT22;42965;52.846;6.614;2023-04-15T15:57:55;9.00;99.90
57088;DHT22;42965;52.846;6.614;2023-04-15T16:00:21;9.00;99.90
57088;DHT22;42965;52.846;6.614;2023-04-15T16:02:56;9.00;99.90
57088;DHT22;42965;52.846;6.614;2023-04-15T16:05:23;8.90;99.90
57088;DHT22;42965;52.846;6.614;2023-04-15T16:07:50;8.90;99.90
57088;DHT22;42965;52.846;6.614;2023-04-15T16:10:16;8.90;99.90
57088;DHT22;42965;52.846;6.614;2023-04-15T16:12:43;8.80;99.90
57088;DHT22;42965;52.846;6.614;2023-04-15T16:15:10;8.80;99.90
57088;DHT22;42965;52.846;6.614;2023-04-15T16:17:37;8.80;99.90
57088;DHT22;42965;52.846;6.614;2023-04-15T16:20:03;8.80;99.90